Time;durP1;ratioP1;P1;durP2;ratioP2;P2;SDS_P1;SDS_P2;PMS_P1;PMS_P2;Temp;Humidity;BMP_temperature;BMP_pressure;BME280_temperature;BME280_humidity;BME280_pressure;Samples;Min_cycle;Max_cycle;Signal;HPM_P1;HPM_P2
2022/11/13 00:00:49;;;;;;;35.37;21.40;;;;;;;;;;6627591;28;20196;-94
2022/11/13 00:03:59;;;;;;;36.93;21.30;;;;;;;;;;6626696;28;20239;-95
2022/11/13 00:07:16;;;;;;;33.97;20.13;;;;;;;;;;6628682;28;20572;-95
2022/11/13 00:10:27;;;;;;;38.73;21.43;;;;;;;;;;6629624;28;20160;-95
2022/11/13 00:13:42;;;;;;;34.87;20.27;;;;;;;;;;6627758;28;20687;-95
2022/11/13 00:16:52;;;;;;;38.20;21.50;;;;;;;;;;6628453;28;20175;-94
2022/11/13 00:20:04;;;;;;;37.77;21.43;;;;;;;;;;6627614;28;20284;-94
2022/11/13 00:23:15;;;;;;;36.17;21.30;;;;;;;;;;6627434;28;20186;-94
2022/11/13 00:26:26;;;;;;;33.30;20.57;;;;;;;;;;6628227;28;20605;-94
2022/11/13 00:29:38;;;;;;;34.23;20.97;;;;;;;;;;6626497;28;20188;-94
2022/11/13 00:32:48;;;;;;;35.07;20.37;;;;;;;;;;6627576;28;20171;-94
2022/11/13 00:36:07;;;;;;;32.57;18.30;;;;;;;;;;6608994;28;20237;-94
2022/11/13 00:39:17;;;;;;;34.20;20.07;;;;;;;;;;6626671;28;20199;-94
2022/11/13 00:42:27;;;;;;;31.20;18.53;;;;;;;;;;6624931;28;20211;-94
2022/11/13 00:45:37;;;;;;;25.27;16.93;;;;;;;;;;6625498;28;20184;-94
2022/11/13 00:48:48;;;;;;;29.07;17.93;;;;;;;;;;6624930;28;20210;-94
2022/11/13 00:51:59;;;;;;;32.03;18.33;;;;;;;;;;6625235;28;20211;-94
2022/11/13 00:55:09;;;;;;;30.53;17.20;;;;;;;;;;6625241;28;20171;-94
2022/11/13 00:58:21;;;;;;;23.73;16.03;;;;;;;;;;6624810;28;20200;-94
2022/11/13 01:01:32;;;;;;;30.27;16.30;;;;;;;;;;6624781;28;20208;-94
2022/11/13 01:04:42;;;;;;;29.40;16.50;;;;;;;;;;6626578;28;20302;-94
2022/11/13 01:07:55;;;;;;;31.07;16.83;;;;;;;;;;6610219;28;20199;-95
2022/11/13 01:11:10;;;;;;;31.60;18.10;;;;;;;;;;6654308;28;20167;-94
2022/11/13 01:14:20;;;;;;;28.80;17.87;;;;;;;;;;6658016;28;20198;-94
2022/11/13 01:17:30;;;;;;;29.30;16.53;;;;;;;;;;6647689;28;20187;-95
2022/11/13 01:20:41;;;;;;;24.40;15.53;;;;;;;;;;6640654;28;20175;-94
2022/11/13 01:23:53;;;;;;;25.60;15.17;;;;;;;;;;6634176;28;20179;-93
2022/11/13 01:27:03;;;;;;;27.70;16.10;;;;;;;;;;6625437;28;20240;-95
2022/11/13 01:30:15;;;;;;;28.77;16.30;;;;;;;;;;6624355;28;20175;-95
2022/11/13 01:33:25;;;;;;;26.90;15.20;;;;;;;;;;6625147;28;20186;-95
2022/11/13 01:36:37;;;;;;;26.40;15.87;;;;;;;;;;6623562;28;20176;-95
2022/11/13 01:39:49;;;;;;;27.57;16.07;;;;;;;;;;6623581;28;20238;-95
2022/11/13 01:43:10;;;;;;;25.20;15.30;;;;;;;;;;6624125;28;20186;-93
2022/11/13 01:46:23;;;;;;;23.73;14.63;;;;;;;;;;6623340;28;20229;-93
2022/11/13 01:49:35;;;;;;;27.10;15.07;;;;;;;;;;6623754;28;20207;-94
2022/11/13 01:52:46;;;;;;;24.23;14.90;;;;;;;;;;6622653;28;20258;-93
2022/11/13 01:55:56;;;;;;;26.47;15.30;;;;;;;;;;6623611;28;20180;-94
2022/11/13 01:59:14;;;;;;;25.77;15.30;;;;;;;;;;6624167;28;20224;-94
2022/11/13 02:02:24;;;;;;;26.67;15.40;;;;;;;;;;6624583;28;20164;-93
2022/11/13 02:05:35;;;;;;;26.47;14.67;;;;;;;;;;6624625;28;20179;-93
2022/11/13 02:08:46;;;;;;;24.10;15.53;;;;;;;;;;6623153;28;20180;-96
2022/11/13 02:11:57;;;;;;;27.07;15.60;;;;;;;;;;6622673;28;20180;-95
2022/11/13 02:15:08;;;;;;;24.97;14.17;;;;;;;;;;6624322;28;20222;-95
2022/11/13 02:18:20;;;;;;;25.97;13.50;;;;;;;;;;6623856;28;20211;-93
2022/11/13 02:21:49;;;;;;;24.10;14.63;;;;;;;;;;6624087;28;20506;-93
2022/11/13 02:25:01;;;;;;;22.13;13.60;;;;;;;;;;6622241;28;20171;-94
2022/11/13 02:28:12;;;;;;;22.73;14.00;;;;;;;;;;6605996;28;20610;-94
2022/11/13 02:31:22;;;;;;;23.00;14.57;;;;;;;;;;6623150;28;20203;-94
2022/11/13 02:34:32;;;;;;;24.23;14.47;;;;;;;;;;6623665;28;20175;-94
2022/11/13 02:37:43;;;;;;;26.60;15.47;;;;;;;;;;6621913;28;20231;-93
2022/11/13 02:40:53;;;;;;;25.53;14.30;;;;;;;;;;6622214;28;20222;-94
2022/11/13 02:44:04;;;;;;;23.43;14.13;;;;;;;;;;6621770;28;20175;-93
2022/11/13 02:47:14;;;;;;;25.30;14.20;;;;;;;;;;6621938;28;20210;-93
2022/11/13 02:50:26;;;;;;;27.13;14.43;;;;;;;;;;6621571;28;20211;-93
2022/11/13 02:53:36;;;;;;;24.43;13.97;;;;;;;;;;6621585;28;20183;-93
2022/11/13 02:56:47;;;;;;;25.20;14.33;;;;;;;;;;6621582;28;20278;-93
2022/11/13 02:59:57;;;;;;;25.67;14.03;;;;;;;;;;6620964;28;20227;-94
2022/11/13 03:03:09;;;;;;;22.83;13.03;;;;;;;;;;6621768;28;20238;-93
2022/11/13 03:06:19;;;;;;;22.17;12.97;;;;;;;;;;6621619;28;20653;-94
2022/11/13 03:09:30;;;;;;;20.40;12.73;;;;;;;;;;6621293;28;20179;-94
2022/11/13 03:12:41;;;;;;;23.80;13.43;;;;;;;;;;6622309;28;20183;-93
2022/11/13 03:15:52;;;;;;;27.00;14.37;;;;;;;;;;6621963;28;20233;-94
2022/11/13 03:19:03;;;;;;;24.43;14.07;;;;;;;;;;6623561;28;20601;-91
2022/11/13 03:22:13;;;;;;;23.47;12.80;;;;;;;;;;6622515;28;20242;-91
2022/11/13 03:25:23;;;;;;;23.07;13.80;;;;;;;;;;6622863;28;20172;-92
2022/11/13 03:28:36;;;;;;;22.40;13.30;;;;;;;;;;6622793;28;20176;-94
2022/11/13 03:31:47;;;;;;;21.40;12.83;;;;;;;;;;6622851;28;20198;-94
2022/11/13 03:34:57;;;;;;;22.07;12.80;;;;;;;;;;6620741;28;20206;-94
2022/11/13 03:38:07;;;;;;;23.30;13.47;;;;;;;;;;6621195;28;20257;-92
2022/11/13 03:41:18;;;;;;;21.67;12.70;;;;;;;;;;6643970;28;20160;-92
2022/11/13 03:44:28;;;;;;;21.37;12.87;;;;;;;;;;6654742;28;20160;-91
2022/11/13 03:47:38;;;;;;;21.37;11.87;;;;;;;;;;6646615;28;20187;-92
2022/11/13 03:50:51;;;;;;;22.97;12.30;;;;;;;;;;6644263;28;20632;-92
2022/11/13 03:54:01;;;;;;;20.40;11.90;;;;;;;;;;6632399;28;20176;-92
2022/11/13 03:57:11;;;;;;;22.23;13.30;;;;;;;;;;6621756;28;20538;-92
2022/11/13 04:00:22;;;;;;;22.13;12.77;;;;;;;;;;6622041;28;20207;-92
2022/11/13 04:03:32;;;;;;;22.80;12.83;;;;;;;;;;6620832;28;20559;-92
2022/11/13 04:06:44;;;;;;;22.80;12.63;;;;;;;;;;6622010;28;20229;-92
2022/11/13 04:09:55;;;;;;;21.97;13.63;;;;;;;;;;6621659;28;20263;-93
2022/11/13 04:13:05;;;;;;;22.13;12.80;;;;;;;;;;6621770;28;20670;-92
2022/11/13 04:16:15;;;;;;;21.13;12.70;;;;;;;;;;6621467;28;20524;-92
2022/11/13 04:19:27;;;;;;;24.03;13.13;;;;;;;;;;6620897;28;20286;-93
2022/11/13 04:22:40;;;;;;;22.20;12.60;;;;;;;;;;6622801;28;20182;-93
2022/11/13 04:25:50;;;;;;;21.43;12.30;;;;;;;;;;6622489;28;20238;-93
2022/11/13 04:29:01;;;;;;;20.63;12.30;;;;;;;;;;6622713;28;20282;-93
2022/11/13 04:32:11;;;;;;;23.40;13.40;;;;;;;;;;6623449;28;20194;-93
2022/11/13 04:35:21;;;;;;;21.07;12.33;;;;;;;;;;6625051;28;20616;-93
2022/11/13 04:38:32;;;;;;;21.57;12.30;;;;;;;;;;6625205;28;20607;-93
2022/11/13 04:45:11;;;;;;;21.83;12.67;;;;;;;;;;6626023;28;20198;-93
2022/11/13 04:48:21;;;;;;;24.07;13.57;;;;;;;;;;6625572;28;20180;-93
2022/11/13 04:51:32;;;;;;;24.47;13.03;;;;;;;;;;6626167;28;20526;-92
2022/11/13 04:54:42;;;;;;;25.30;12.63;;;;;;;;;;6624473;28;20190;-93
2022/11/13 04:57:54;;;;;;;22.13;12.27;;;;;;;;;;6625750;28;20204;-93
2022/11/13 05:01:04;;;;;;;21.30;12.17;;;;;;;;;;6626185;28;20206;-93
2022/11/13 05:04:14;;;;;;;22.30;12.97;;;;;;;;;;6607872;28;20223;-93
2022/11/13 05:07:25;;;;;;;22.67;12.40;;;;;;;;;;6624562;28;20267;-93
2022/11/13 05:10:35;;;;;;;25.30;12.77;;;;;;;;;;6624663;28;20263;-93
2022/11/13 05:13:46;;;;;;;22.67;12.60;;;;;;;;;;6608020;28;20291;-93
2022/11/13 05:16:59;;;;;;;22.73;12.57;;;;;;;;;;6625328;28;20273;-94
2022/11/13 05:20:09;;;;;;;22.43;12.23;;;;;;;;;;6625733;28;20249;-94
2022/11/13 05:23:20;;;;;;;20.07;11.93;;;;;;;;;;6609294;28;20188;-94
2022/11/13 05:26:30;;;;;;;26.20;12.40;;;;;;;;;;6623976;28;20175;-93
2022/11/13 05:29:41;;;;;;;22.13;12.73;;;;;;;;;;6625216;28;20175;-92
2022/11/13 05:32:52;;;;;;;21.23;12.30;;;;;;;;;;6625406;28;20222;-94
2022/11/13 05:36:04;;;;;;;22.73;12.43;;;;;;;;;;6625027;28;20203;-93
2022/11/13 05:39:14;;;;;;;24.00;13.40;;;;;;;;;;6624396;28;20211;-94
2022/11/13 05:42:24;;;;;;;23.77;13.10;;;;;;;;;;6623583;28;20176;-92
2022/11/13 05:45:35;;;;;;;20.87;12.43;;;;;;;;;;6624384;28;20182;-93
2022/11/13 05:48:46;;;;;;;24.70;13.30;;;;;;;;;;6623416;28;20211;-93
2022/11/13 05:51:56;;;;;;;23.80;12.50;;;;;;;;;;6624319;28;20174;-93
2022/11/13 05:55:07;;;;;;;21.80;12.93;;;;;;;;;;6626256;28;20167;-93
2022/11/13 05:58:17;;;;;;;22.37;12.67;;;;;;;;;;6623257;28;20231;-93
2022/11/13 06:01:30;;;;;;;26.50;14.63;;;;;;;;;;6622714;28;20690;-92
2022/11/13 06:04:41;;;;;;;26.47;14.03;;;;;;;;;;6624098;28;20363;-92
2022/11/13 06:07:51;;;;;;;25.20;14.30;;;;;;;;;;6624763;28;20230;-92
2022/11/13 06:11:02;;;;;;;23.27;13.73;;;;;;;;;;6622610;28;20184;-92
2022/11/13 06:14:13;;;;;;;24.27;13.43;;;;;;;;;;6624200;28;20247;-92
2022/11/13 06:17:23;;;;;;;27.10;15.00;;;;;;;;;;6623650;28;20171;-92
2022/11/13 06:20:34;;;;;;;23.77;13.93;;;;;;;;;;6622934;28;20651;-92
2022/11/13 06:23:45;;;;;;;24.27;14.07;;;;;;;;;;6622274;28;20634;-93
2022/11/13 06:26:55;;;;;;;26.20;14.93;;;;;;;;;;6624466;28;20509;-92
2022/11/13 06:30:06;;;;;;;24.83;13.93;;;;;;;;;;6622167;28;20179;-93
2022/11/13 06:33:16;;;;;;;26.67;14.20;;;;;;;;;;6621423;28;20176;-93
2022/11/13 06:36:28;;;;;;;25.10;14.07;;;;;;;;;;6623289;28;20201;-93
2022/11/13 06:39:39;;;;;;;24.27;13.37;;;;;;;;;;6623419;28;20227;-93
2022/11/13 06:42:49;;;;;;;25.07;14.60;;;;;;;;;;6621848;28;20188;-93
2022/11/13 06:46:05;;;;;;;24.17;13.80;;;;;;;;;;6622538;28;20199;-93
2022/11/13 06:49:16;;;;;;;27.30;14.23;;;;;;;;;;6623155;28;20279;-93
2022/11/13 06:52:26;;;;;;;26.17;15.67;;;;;;;;;;6623604;28;20172;-92
2022/11/13 06:55:41;;;;;;;30.60;16.43;;;;;;;;;;6622781;28;20175;-92
2022/11/13 06:58:52;;;;;;;27.07;15.27;;;;;;;;;;6622636;28;20211;-93
2022/11/13 07:02:04;;;;;;;25.77;14.53;;;;;;;;;;6621438;28;20175;-93
2022/11/13 07:05:14;;;;;;;26.87;14.47;;;;;;;;;;6621800;28;20227;-93
2022/11/13 07:08:25;;;;;;;25.20;13.10;;;;;;;;;;6621329;28;20226;-94
2022/11/13 07:11:36;;;;;;;24.93;13.73;;;;;;;;;;6622122;28;20234;-94
2022/11/13 07:14:47;;;;;;;22.90;14.07;;;;;;;;;;6621467;28;20179;-94
2022/11/13 07:18:02;;;;;;;22.33;13.53;;;;;;;;;;6620653;28;20739;-93
2022/11/13 07:21:12;;;;;;;27.67;14.80;;;;;;;;;;6622279;28;20176;-95
2022/11/13 07:24:22;;;;;;;24.33;14.20;;;;;;;;;;6620929;28;20179;-94
2022/11/13 07:27:33;;;;;;;27.57;14.37;;;;;;;;;;6620444;28;20547;-93
2022/11/13 07:30:43;;;;;;;22.20;12.83;;;;;;;;;;6621594;28;20690;-94
2022/11/13 07:33:53;;;;;;;25.37;14.23;;;;;;;;;;6620957;28;20176;-94
2022/11/13 07:37:05;;;;;;;22.53;13.17;;;;;;;;;;6604801;28;20214;-94
2022/11/13 07:40:16;;;;;;;26.87;14.43;;;;;;;;;;6622790;28;20195;-94
2022/11/13 07:43:28;;;;;;;28.33;15.17;;;;;;;;;;6620866;28;20186;-94
2022/11/13 07:46:39;;;;;;;29.37;16.43;;;;;;;;;;6621690;28;20175;-95
2022/11/13 07:49:49;;;;;;;29.13;16.37;;;;;;;;;;6621952;28;20644;-94
2022/11/13 07:53:03;;;;;;;23.30;14.10;;;;;;;;;;6621214;28;20182;-94
2022/11/13 07:56:13;;;;;;;23.33;13.27;;;;;;;;;;6620983;28;20188;-94
2022/11/13 07:59:24;;;;;;;24.13;14.27;;;;;;;;;;6621827;28;20302;-94
2022/11/13 08:02:34;;;;;;;36.03;18.20;;;;;;;;;;6604518;28;20239;-94
2022/11/13 08:05:45;;;;;;;26.53;15.50;;;;;;;;;;6605616;28;20190;-94
2022/11/13 08:08:56;;;;;;;27.77;14.30;;;;;;;;;;6625903;28;20175;-94
2022/11/13 08:12:06;;;;;;;82.57;47.77;;;;;;;;;;6627592;28;20167;-93
2022/11/13 08:15:17;;;;;;;23.73;14.63;;;;;;;;;;6625497;28;20176;-93
2022/11/13 08:18:27;;;;;;;17.93;11.23;;;;;;;;;;6625319;28;20636;-93
2022/11/13 08:21:38;;;;;;;18.40;11.03;;;;;;;;;;6624986;28;20172;-92
2022/11/13 08:24:48;;;;;;;19.80;11.93;;;;;;;;;;6627136;28;20587;-92
2022/11/13 08:27:59;;;;;;;20.93;13.23;;;;;;;;;;6625127;28;20180;-93
2022/11/13 08:31:13;;;;;;;18.73;11.27;;;;;;;;;;6624546;28;20206;-93
2022/11/13 08:34:23;;;;;;;17.27;10.73;;;;;;;;;;6627905;28;20618;-93
2022/11/13 08:37:34;;;;;;;18.57;11.67;;;;;;;;;;6624622;28;20201;-92
2022/11/13 08:40:44;;;;;;;19.47;11.87;;;;;;;;;;6625037;28;20215;-93
2022/11/13 08:43:54;;;;;;;17.13;11.13;;;;;;;;;;6626066;28;20522;-92
2022/11/13 08:47:05;;;;;;;21.20;13.10;;;;;;;;;;6627854;28;20171;-93
2022/11/13 08:50:15;;;;;;;14.77;9.97;;;;;;;;;;6624634;28;20229;-92
2022/11/13 08:53:25;;;;;;;18.37;12.17;;;;;;;;;;6625980;28;20172;-92
2022/11/13 08:56:36;;;;;;;27.07;19.13;;;;;;;;;;6624851;28;20581;-94
2022/11/13 08:59:46;;;;;;;13.83;10.27;;;;;;;;;;6624265;28;20298;-93
2022/11/13 09:02:57;;;;;;;15.60;10.90;;;;;;;;;;6625323;28;20748;-92
2022/11/13 09:06:08;;;;;;;20.60;13.90;;;;;;;;;;6625963;28;20579;-92
2022/11/13 09:09:19;;;;;;;13.93;10.33;;;;;;;;;;6623672;28;20329;-92
2022/11/13 09:12:29;;;;;;;13.97;10.37;;;;;;;;;;6625423;28;20176;-92
2022/11/13 09:15:41;;;;;;;13.07;9.50;;;;;;;;;;6624790;28;20628;-93
2022/11/13 09:18:54;;;;;;;13.00;10.70;;;;;;;;;;6625689;28;20247;-94
2022/11/13 09:22:04;;;;;;;16.60;12.03;;;;;;;;;;6625553;28;20186;-95
2022/11/13 09:25:15;;;;;;;13.13;9.73;;;;;;;;;;6625779;28;20184;-92
2022/11/13 09:28:26;;;;;;;11.63;8.63;;;;;;;;;;6624833;28;20519;-92
2022/11/13 09:31:39;;;;;;;11.63;8.53;;;;;;;;;;6606956;28;20187;-92
2022/11/13 09:34:50;;;;;;;11.40;8.30;;;;;;;;;;6624826;28;20525;-92
2022/11/13 09:38:01;;;;;;;12.77;8.43;;;;;;;;;;6625756;28;20206;-92
2022/11/13 09:41:13;;;;;;;14.00;9.13;;;;;;;;;;6624606;28;20175;-92
2022/11/13 09:44:23;;;;;;;13.63;9.00;;;;;;;;;;6625381;28;20172;-93
2022/11/13 09:47:41;;;;;;;16.53;11.83;;;;;;;;;;6625453;28;20168;-92
2022/11/13 09:50:52;;;;;;;17.10;11.63;;;;;;;;;;6624860;28;20169;-92
2022/11/13 09:54:08;;;;;;;19.90;12.00;;;;;;;;;;6624482;28;20265;-93
2022/11/13 09:57:18;;;;;;;18.10;11.80;;;;;;;;;;6624342;28;20183;-93
2022/11/13 10:00:31;;;;;;;18.40;11.80;;;;;;;;;;6623440;28;20337;-92
2022/11/13 10:03:49;;;;;;;18.37;11.67;;;;;;;;;;6624552;28;20231;-92
2022/11/13 10:07:04;;;;;;;16.07;11.03;;;;;;;;;;6623073;28;20662;-91
2022/11/13 10:10:15;;;;;;;14.70;11.50;;;;;;;;;;6624279;28;20172;-91
2022/11/13 10:13:57;;;;;;;18.03;11.57;;;;;;;;;;6623814;28;20259;-91
2022/11/13 10:17:14;;;;;;;18.30;11.07;;;;;;;;;;6611840;28;20183;-92
2022/11/13 10:20:25;;;;;;;17.17;10.40;;;;;;;;;;6622749;28;20207;-92
2022/11/13 10:23:46;;;;;;;13.93;9.93;;;;;;;;;;6624439;28;20525;-91
2022/11/13 10:26:58;;;;;;;13.73;9.33;;;;;;;;;;6624912;28;20168;-91
2022/11/13 10:30:12;;;;;;;10.77;7.87;;;;;;;;;;6623112;28;20171;-91
2022/11/13 10:33:24;;;;;;;13.20;8.63;;;;;;;;;;6623138;28;20678;-92
2022/11/13 10:36:44;;;;;;;12.53;8.03;;;;;;;;;;6622443;28;20183;-91
2022/11/13 10:39:55;;;;;;;13.83;9.37;;;;;;;;;;6624006;28;20195;-92
2022/11/13 10:43:05;;;;;;;11.50;8.13;;;;;;;;;;6624329;28;20623;-91
2022/11/13 10:46:19;;;;;;;14.27;9.50;;;;;;;;;;6623364;28;20167;-92
2022/11/13 10:49:37;;;;;;;13.03;9.80;;;;;;;;;;6623168;28;20176;-93
2022/11/13 10:52:48;;;;;;;14.87;9.17;;;;;;;;;;6621214;28;20190;-92
2022/11/13 10:55:59;;;;;;;10.50;7.90;;;;;;;;;;6623279;28;20172;-93
2022/11/13 10:59:12;;;;;;;12.40;8.80;;;;;;;;;;6627000;22;20339;-92
2022/11/13 11:02:24;;;;;;;15.97;12.10;;;;;;;;;;6608737;28;20286;-93
2022/11/13 11:05:35;;;;;;;12.13;9.03;;;;;;;;;;6597629;28;20175;-92
2022/11/13 11:08:45;;;;;;;13.10;9.63;;;;;;;;;;6596133;28;20180;-95
2022/11/13 11:12:14;;;;;;;11.17;7.77;;;;;;;;;;6595538;28;20192;-94
2022/11/13 11:15:33;;;;;;;10.60;8.07;;;;;;;;;;6595870;28;20211;-95
2022/11/13 11:19:00;;;;;;;11.33;7.63;;;;;;;;;;6596994;28;20215;-95
2022/11/13 11:22:13;;;;;;;14.00;9.77;;;;;;;;;;6598074;28;20251;-94
2022/11/13 11:25:23;;;;;;;12.00;7.47;;;;;;;;;;6595142;28;20186;-93
2022/11/13 11:28:48;;;;;;;10.63;7.30;;;;;;;;;;6591151;28;20645;-95
2022/11/13 11:32:14;;;;;;;10.93;7.73;;;;;;;;;;6594651;28;20187;-93
2022/11/13 11:35:28;;;;;;;8.47;6.80;;;;;;;;;;6596036;28;20238;-95
2022/11/13 11:38:58;;;;;;;10.93;7.60;;;;;;;;;;6594194;28;20208;-93
2022/11/13 11:42:43;;;;;;;12.63;9.03;;;;;;;;;;6604572;28;20614;-92
2022/11/13 11:46:19;;;;;;;11.37;8.80;;;;;;;;;;6603748;28;20183;-93
2022/11/13 11:49:30;;;;;;;15.93;10.83;;;;;;;;;;6604670;28;20259;-92
2022/11/13 11:52:40;;;;;;;12.00;9.00;;;;;;;;;;6604630;28;20168;-95
2022/11/13 11:56:02;;;;;;;15.07;8.93;;;;;;;;;;6603500;28;20271;-94
2022/11/13 11:59:21;;;;;;;21.97;13.43;;;;;;;;;;6600414;28;20244;-93
2022/11/13 12:02:45;;;;;;;13.47;9.07;;;;;;;;;;6578840;28;20195;-95
2022/11/13 12:06:14;;;;;;;9.33;7.17;;;;;;;;;;6577493;28;20181;-95
2022/11/13 12:09:35;;;;;;;11.80;7.50;;;;;;;;;;6577394;28;20238;-95
2022/11/13 12:13:15;;;;;;;19.00;9.70;;;;;;;;;;6579501;28;20584;-94
2022/11/13 12:16:50;;;;;;;17.57;11.23;;;;;;;;;;6576477;28;20192;-95
2022/11/13 12:20:15;;;;;;;12.63;8.97;;;;;;;;;;6577418;28;20200;-95
2022/11/13 12:23:38;;;;;;;16.87;10.70;;;;;;;;;;6576816;28;20283;-95
2022/11/13 12:26:48;;;;;;;10.13;7.93;;;;;;;;;;6576443;28;20177;-95
2022/11/13 12:30:11;;;;;;;9.53;7.27;;;;;;;;;;6575972;28;20315;-95
2022/11/13 12:33:33;;;;;;;14.67;11.23;;;;;;;;;;6577064;28;20181;-95
2022/11/13 12:36:43;;;;;;;15.47;10.60;;;;;;;;;;6577711;28;20587;-96
2022/11/13 12:40:00;;;;;;;15.23;10.03;;;;;;;;;;6578613;28;20196;-93
2022/11/13 12:43:29;;;;;;;13.30;9.73;;;;;;;;;;6578852;28;20523;-94
2022/11/13 12:46:40;;;;;;;13.90;10.40;;;;;;;;;;6577254;28;20181;-92
2022/11/13 12:50:19;;;;;;;15.03;9.80;;;;;;;;;;6577990;28;20177;-93
2022/11/13 12:53:31;;;;;;;14.03;9.40;;;;;;;;;;6573035;28;20193;-93
2022/11/13 12:56:41;;;;;;;14.20;10.10;;;;;;;;;;6573092;28;20648;-94
2022/11/13 13:23:12;;;;;;;16.40;10.33;;;;;;;;;;6594506;28;20294;-91
2022/11/13 13:26:47;;;;;;;16.60;11.03;;;;;;;;;;6579683;28;20222;-91
2022/11/13 13:29:58;;;;;;;16.80;11.47;;;;;;;;;;6578924;28;20177;-91
2022/11/13 13:33:11;;;;;;;17.13;10.67;;;;;;;;;;6579779;28;20238;-91
2022/11/13 13:36:24;;;;;;;16.50;10.47;;;;;;;;;;6596247;28;20183;-91
2022/11/13 13:39:55;;;;;;;16.00;11.30;;;;;;;;;;6579185;28;20208;-92
2022/11/13 13:43:36;;;;;;;19.50;12.77;;;;;;;;;;6595871;28;20210;-90
2022/11/13 13:46:47;;;;;;;21.03;12.67;;;;;;;;;;6579513;28;20272;-91
2022/11/13 13:49:58;;;;;;;17.93;11.60;;;;;;;;;;6591758;28;20187;-92
2022/11/13 13:53:10;;;;;;;17.87;12.10;;;;;;;;;;6596485;28;20177;-91
2022/11/13 13:56:22;;;;;;;21.20;13.60;;;;;;;;;;6580063;28;20594;-90
2022/11/13 13:59:34;;;;;;;17.70;11.83;;;;;;;;;;6594746;28;20204;-91
2022/11/13 14:02:49;;;;;;;22.20;13.50;;;;;;;;;;6578211;28;20180;-92
2022/11/13 14:06:16;;;;;;;19.30;11.63;;;;;;;;;;6597293;28;20306;-91
2022/11/13 14:09:27;;;;;;;20.53;13.37;;;;;;;;;;6596171;28;20172;-92
2022/11/13 14:12:40;;;;;;;20.60;14.57;;;;;;;;;;6593863;28;20180;-91
2022/11/13 14:16:04;;;;;;;21.63;13.77;;;;;;;;;;6593938;28;20540;-92
2022/11/13 14:19:14;;;;;;;19.20;12.73;;;;;;;;;;6596841;28;20204;-93
2022/11/13 14:22:25;;;;;;;22.60;15.67;;;;;;;;;;6578412;28;20366;-93
2022/11/13 14:25:36;;;;;;;24.20;17.00;;;;;;;;;;6595296;28;20196;-93
2022/11/13 14:36:30;;;;;;;27.40;20.90;;;;;;;;;;6582823;28;20181;-93
2022/11/13 14:39:44;;;;;;;27.03;21.13;;;;;;;;;;6561697;28;20592;-94
2022/11/13 14:43:16;;;;;;;18.27;13.03;;;;;;;;;;6597328;28;20532;-94
2022/11/13 14:46:34;;;;;;;19.40;15.43;;;;;;;;;;6597307;28;20685;-93
2022/11/13 14:49:45;;;;;;;24.40;18.13;;;;;;;;;;6580915;28;20184;-94
2022/11/13 15:04:33;;;;;;;12.80;9.53;;;;;;;;;;6596270;28;20246;-94
2022/11/13 15:08:18;;;;;;;20.03;14.27;;;;;;;;;;6596029;28;20271;-94
2022/11/13 15:11:29;;;;;;;17.93;15.07;;;;;;;;;;6595553;28;20518;-94
2022/11/13 15:14:40;;;;;;;20.17;15.60;;;;;;;;;;6595902;28;20326;-94
2022/11/13 15:17:52;;;;;;;28.50;21.30;;;;;;;;;;6572581;28;20193;-95
2022/11/13 15:21:02;;;;;;;19.77;12.87;;;;;;;;;;6570767;28;20220;-93
2022/11/13 15:24:14;;;;;;;18.70;13.87;;;;;;;;;;6571428;28;20733;-94
2022/11/13 15:31:40;;;;;;;37.37;21.97;;;;;;;;;;6570247;28;20204;-94
2022/11/13 15:38:39;;;;;;;28.13;19.90;;;;;;;;;;6569525;28;20912;-90
2022/11/13 15:41:50;;;;;;;34.63;21.43;;;;;;;;;;6583251;28;20172;-96
2022/11/13 15:45:01;;;;;;;25.93;18.00;;;;;;;;;;6578956;28;20272;-91
2022/11/13 15:48:12;;;;;;;30.50;20.10;;;;;;;;;;6596236;28;20271;-94
2022/11/13 15:51:24;;;;;;;28.27;17.77;;;;;;;;;;6577599;28;20172;-92
2022/11/13 15:54:35;;;;;;;21.23;14.13;;;;;;;;;;6577783;28;20176;-90
2022/11/13 15:57:45;;;;;;;23.90;15.87;;;;;;;;;;6578765;28;20195;-91
2022/11/13 16:15:06;;;;;;;21.20;14.87;;;;;;;;;;8091529;23;20199;-92
2022/11/13 16:18:25;;;;;;;23.00;16.47;;;;;;;;;;6601055;28;20287;-91
2022/11/13 16:21:40;;;;;;;21.43;16.03;;;;;;;;;;6611293;28;20716;-91
2022/11/13 16:28:40;;;;;;;22.70;15.77;;;;;;;;;;6598811;28;20179;-91
2022/11/13 16:31:51;;;;;;;25.07;14.93;;;;;;;;;;6619442;28;20168;-89
2022/11/13 16:35:01;;;;;;;18.53;13.40;;;;;;;;;;6623122;28;20241;-91
2022/11/13 16:38:12;;;;;;;16.37;10.10;;;;;;;;;;6624175;28;20176;-91
2022/11/13 16:41:22;;;;;;;17.77;13.63;;;;;;;;;;6626682;28;20168;-93
2022/11/13 16:44:33;;;;;;;18.30;12.43;;;;;;;;;;6609480;28;20190;-95
2022/11/13 16:47:44;;;;;;;18.67;13.57;;;;;;;;;;6627379;28;20563;-94
2022/11/13 16:50:54;;;;;;;20.03;13.60;;;;;;;;;;6625427;28;20187;-94
2022/11/13 16:54:04;;;;;;;17.93;12.87;;;;;;;;;;6624897;28;20176;-93
2022/11/13 16:57:15;;;;;;;17.57;12.43;;;;;;;;;;6625711;28;20249;-92
2022/11/13 17:00:26;;;;;;;21.60;14.30;;;;;;;;;;6625794;28;20243;-92
2022/11/13 17:03:36;;;;;;;20.87;13.80;;;;;;;;;;6624215;28;20237;-93
2022/11/13 17:06:46;;;;;;;17.70;12.73;;;;;;;;;;6625476;28;20172;-92
2022/11/13 17:09:57;;;;;;;17.60;11.67;;;;;;;;;;6610543;28;20180;-92
2022/11/13 17:13:08;;;;;;;15.83;11.43;;;;;;;;;;6599246;28;20169;-92
2022/11/13 17:16:19;;;;;;;32.23;22.13;;;;;;;;;;6620296;28;20246;-92
2022/11/13 17:19:29;;;;;;;21.53;15.80;;;;;;;;;;6625255;28;20286;-92
2022/11/13 17:22:46;;;;;;;52.03;37.47;;;;;;;;;;6623892;28;20179;-92
2022/11/13 17:25:57;;;;;;;58.50;36.40;;;;;;;;;;6621951;28;20179;-92
2022/11/13 17:29:07;;;;;;;20.37;14.63;;;;;;;;;;6624701;28;20172;-92
2022/11/13 17:32:17;;;;;;;18.07;12.33;;;;;;;;;;6624614;28;20175;-92
2022/11/13 17:35:28;;;;;;;24.97;17.50;;;;;;;;;;6623581;28;20175;-92
2022/11/13 17:38:38;;;;;;;25.37;17.90;;;;;;;;;;6624411;28;20256;-92
2022/11/13 17:41:49;;;;;;;15.37;11.50;;;;;;;;;;6623931;28;20263;-92
2022/11/13 17:44:59;;;;;;;15.20;10.97;;;;;;;;;;6624436;28;20176;-92
2022/11/13 17:48:10;;;;;;;15.57;11.03;;;;;;;;;;6623796;28;20179;-92
2022/11/13 17:51:20;;;;;;;15.00;9.80;;;;;;;;;;6624408;28;20267;-92
2022/11/13 17:54:31;;;;;;;10.20;7.37;;;;;;;;;;6621169;28;20266;-92
2022/11/13 17:57:41;;;;;;;12.90;8.67;;;;;;;;;;6598021;28;20183;-92
2022/11/13 18:00:52;;;;;;;11.20;7.90;;;;;;;;;;6622425;28;20214;-92
2022/11/13 18:04:03;;;;;;;13.37;8.30;;;;;;;;;;6620628;28;20288;-92
2022/11/13 18:07:14;;;;;;;9.97;8.10;;;;;;;;;;6622561;28;20594;-91
2022/11/13 18:10:24;;;;;;;8.90;7.50;;;;;;;;;;6620693;28;20176;-92
2022/11/13 18:13:35;;;;;;;9.73;8.43;;;;;;;;;;6620688;28;20180;-92
2022/11/13 18:16:45;;;;;;;11.53;8.83;;;;;;;;;;6622340;28;20227;-92
2022/11/13 18:19:56;;;;;;;11.40;8.10;;;;;;;;;;6622236;28;20286;-92
2022/11/13 18:23:06;;;;;;;13.93;9.47;;;;;;;;;;6600231;28;20219;-92
2022/11/13 18:26:17;;;;;;;14.03;9.67;;;;;;;;;;6622707;28;20268;-92
2022/11/13 18:29:28;;;;;;;14.77;10.47;;;;;;;;;;6622408;28;20176;-92
2022/11/13 18:32:38;;;;;;;12.50;10.10;;;;;;;;;;6621783;28;20176;-92
2022/11/13 18:35:48;;;;;;;12.27;7.97;;;;;;;;;;6622559;28;20573;-92
2022/11/13 18:39:01;;;;;;;20.47;14.73;;;;;;;;;;6622729;28;20301;-92
2022/11/13 18:42:12;;;;;;;18.00;11.93;;;;;;;;;;6625557;28;20152;-92
2022/11/13 18:45:22;;;;;;;11.30;8.60;;;;;;;;;;6654875;28;20171;-92
2022/11/13 18:48:34;;;;;;;9.83;7.63;;;;;;;;;;6653753;28;20198;-91
2022/11/13 18:51:44;;;;;;;12.40;9.07;;;;;;;;;;6652229;28;20203;-93
2022/11/13 18:54:55;;;;;;;15.47;11.07;;;;;;;;;;6635732;28;20687;-92
2022/11/13 18:58:05;;;;;;;21.60;13.03;;;;;;;;;;6594107;28;20206;-92
2022/11/13 19:01:24;;;;;;;22.77;15.23;;;;;;;;;;6625742;28;20710;-92
2022/11/13 19:04:34;;;;;;;11.87;9.80;;;;;;;;;;6624328;28;20180;-92
2022/11/13 19:07:44;;;;;;;19.83;14.63;;;;;;;;;;6623019;28;20211;-92
2022/11/13 19:11:02;;;;;;;18.47;12.37;;;;;;;;;;6624108;28;20172;-92
2022/11/13 19:14:13;;;;;;;13.43;10.27;;;;;;;;;;6622781;28;20567;-93
2022/11/13 19:17:24;;;;;;;14.80;9.90;;;;;;;;;;6625445;28;20239;-92
2022/11/13 19:20:36;;;;;;;12.50;8.87;;;;;;;;;;6621773;28;20210;-93
2022/11/13 19:23:48;;;;;;;17.40;11.57;;;;;;;;;;6621098;28;20238;-92
2022/11/13 19:26:58;;;;;;;15.47;9.87;;;;;;;;;;6621905;28;20168;-92
2022/11/13 19:30:09;;;;;;;14.87;9.90;;;;;;;;;;6620666;28;20187;-92
2022/11/13 19:33:23;;;;;;;16.07;11.77;;;;;;;;;;6620874;28;20686;-93
2022/11/13 19:36:33;;;;;;;13.73;9.27;;;;;;;;;;6622085;28;20176;-92
2022/11/13 19:39:44;;;;;;;19.27;12.80;;;;;;;;;;6622063;28;20231;-92
2022/11/13 19:42:54;;;;;;;26.87;17.00;;;;;;;;;;6620531;28;20187;-92
2022/11/13 19:46:06;;;;;;;24.13;15.00;;;;;;;;;;6621238;28;20167;-92
2022/11/13 19:49:17;;;;;;;18.87;12.43;;;;;;;;;;6621533;28;20176;-92
2022/11/13 19:52:27;;;;;;;14.37;10.03;;;;;;;;;;6621073;28;20203;-92
2022/11/13 19:55:38;;;;;;;15.90;10.37;;;;;;;;;;6620255;28;20179;-92